<?xml version="1.0" encoding="UTF-8" standalone="no" ?>
<gpx xmlns="http://www.topografix.com/GPX/1/1" xmlns:xsi="http://www.w3.org/2001/XMLSchema-instance" xsi:schemaLocation="http://www.topografix.com/GPX/1/1 http://www.topografix.com/GPX/1/1/gpx.xsd" version="1.1" creator="VisuGPX - https://www.visugpx.com">
  <metadata>
    <name>Transcaucasie: Géorgie + Arménie</name>
  </metadata>
  <trk>
    <name><![CDATA[Tour d'Europe: étape 462]]></name>
    <extensions>
      <line xmlns="http://www.topografix.com/GPX/gpx_style/0/2">
        <color>00FFFF</color>
        <width>4</width>
      </line>
    </extensions>
    <trkseg>
      <trkpt lat="41.69529" lon="44.38581">
        <ele>1203.924576</ele>
        <time>2021-10-03T06:55:36.696Z</time>
      </trkpt>
      <trkpt lat="41.6945" lon="44.38624">
        <ele>1203.739553</ele>
        <time>2021-10-03T06:59:56.271Z</time>
      </trkpt>
      <trkpt lat="41.6931" lon="44.38471">
        <ele>1191.92407</ele>
        <time>2021-10-03T07:01:29.299Z</time>
      </trkpt>
      <trkpt lat="41.691" lon="44.38511">
        <ele>1178.130273</ele>
        <time>2021-10-03T07:02:19.296Z</time>
      </trkpt>
      <trkpt lat="41.69127" lon="44.38739">
        <ele>1159.554297</ele>
        <time>2021-10-03T07:03:00.255Z</time>
      </trkpt>
      <trkpt lat="41.69275" lon="44.39039">
        <ele>1145.002726</ele>
        <time>2021-10-03T07:03:34.263Z</time>
      </trkpt>
      <trkpt lat="41.69294" lon="44.39163">
        <ele>1141.289866</ele>
        <time>2021-10-03T07:04:34.285Z</time>
      </trkpt>
      <trkpt lat="41.69111" lon="44.39138">
        <ele>1155.327837</ele>
        <time>2021-10-03T07:06:19.281Z</time>
      </trkpt>
      <trkpt lat="41.68969" lon="44.39206">
        <ele>1165.321519</ele>
        <time>2021-10-03T07:08:15.283Z</time>
      </trkpt>
      <trkpt lat="41.68987" lon="44.39026">
        <ele>1176.218706</ele>
        <time>2021-10-03T07:10:15.282Z</time>
      </trkpt>
      <trkpt lat="41.68815" lon="44.39134">
        <ele>1190.168079</ele>
        <time>2021-10-03T07:12:21.294Z</time>
      </trkpt>
      <trkpt lat="41.68735" lon="44.39366">
        <ele>1201.187349</ele>
        <time>2021-10-03T07:14:23.302Z</time>
      </trkpt>
      <trkpt lat="41.68677" lon="44.39611">
        <ele>1210.613647</ele>
        <time>2021-10-03T07:16:21.311Z</time>
      </trkpt>
      <trkpt lat="41.68664" lon="44.39878">
        <ele>1228.280223</ele>
        <time>2021-10-03T07:18:25.293Z</time>
      </trkpt>
      <trkpt lat="41.6866" lon="44.40126">
        <ele>1240.128337</ele>
        <time>2021-10-03T07:20:31.271Z</time>
      </trkpt>
      <trkpt lat="41.68664" lon="44.40384">
        <ele>1250.041335</ele>
        <time>2021-10-03T07:22:39.284Z</time>
      </trkpt>
      <trkpt lat="41.68631" lon="44.40638">
        <ele>1253.127066</ele>
        <time>2021-10-03T07:24:37.295Z</time>
      </trkpt>
      <trkpt lat="41.68533" lon="44.40873">
        <ele>1262.917842</ele>
        <time>2021-10-03T07:26:29.277Z</time>
      </trkpt>
      <trkpt lat="41.68421" lon="44.41094">
        <ele>1264.342055</ele>
        <time>2021-10-03T07:27:56.290Z</time>
      </trkpt>
      <trkpt lat="41.684" lon="44.41363">
        <ele>1265.394431</ele>
        <time>2021-10-03T07:29:12.328Z</time>
      </trkpt>
      <trkpt lat="41.68441" lon="44.41603">
        <ele>1280.24533</ele>
        <time>2021-10-03T07:31:06.290Z</time>
      </trkpt>
      <trkpt lat="41.6862" lon="44.41688">
        <ele>1295.105315</ele>
        <time>2021-10-03T07:33:20.297Z</time>
      </trkpt>
      <trkpt lat="41.68738" lon="44.41887">
        <ele>1309.61062</ele>
        <time>2021-10-03T07:36:03.326Z</time>
      </trkpt>
      <trkpt lat="41.68908" lon="44.41929">
        <ele>1329.940673</ele>
        <time>2021-10-03T07:38:20.291Z</time>
      </trkpt>
      <trkpt lat="41.69066" lon="44.42048">
        <ele>1342.687454</ele>
        <time>2021-10-03T07:40:54.280Z</time>
      </trkpt>
      <trkpt lat="41.6921" lon="44.42215">
        <ele>1355.346129</ele>
        <time>2021-10-03T07:43:21.292Z</time>
      </trkpt>
      <trkpt lat="41.69399" lon="44.42206">
        <ele>1369.549667</ele>
        <time>2021-10-03T07:45:36.273Z</time>
      </trkpt>
      <trkpt lat="41.69584" lon="44.4215">
        <ele>1383.35566</ele>
        <time>2021-10-03T07:48:06.298Z</time>
      </trkpt>
      <trkpt lat="41.69705" lon="44.42326">
        <ele>1397.147385</ele>
        <time>2021-10-03T07:50:45.277Z</time>
      </trkpt>
      <trkpt lat="41.69656" lon="44.42552">
        <ele>1411.590607</ele>
        <time>2021-10-03T07:53:25.312Z</time>
      </trkpt>
      <trkpt lat="41.69795" lon="44.42719">
        <ele>1433.963637</ele>
        <time>2021-10-03T07:56:31.296Z</time>
      </trkpt>
      <trkpt lat="41.69988" lon="44.42685">
        <ele>1454.783086</ele>
        <time>2021-10-03T07:59:24.279Z</time>
      </trkpt>
      <trkpt lat="41.70176" lon="44.42612">
        <ele>1465.902107</ele>
        <time>2021-10-03T08:01:45.300Z</time>
      </trkpt>
      <trkpt lat="41.70311" lon="44.42747">
        <ele>1475.270588</ele>
        <time>2021-10-03T08:04:18.348Z</time>
      </trkpt>
      <trkpt lat="41.70465" lon="44.42909">
        <ele>1484.840662</ele>
        <time>2021-10-03T08:06:13.302Z</time>
      </trkpt>
      <trkpt lat="41.70557" lon="44.4315">
        <ele>1477.542454</ele>
        <time>2021-10-03T08:07:17.307Z</time>
      </trkpt>
      <trkpt lat="41.70609" lon="44.43414">
        <ele>1480.115426</ele>
        <time>2021-10-03T08:09:05.315Z</time>
      </trkpt>
      <trkpt lat="41.70665" lon="44.43707">
        <ele>1479.18879</ele>
        <time>2021-10-03T08:09:57.299Z</time>
      </trkpt>
      <trkpt lat="41.70686" lon="44.43994">
        <ele>1487.896396</ele>
        <time>2021-10-03T08:14:19.299Z</time>
      </trkpt>
      <trkpt lat="41.70677" lon="44.44253">
        <ele>1495.899719</ele>
        <time>2021-10-03T08:16:04.306Z</time>
      </trkpt>
      <trkpt lat="41.70677" lon="44.44525">
        <ele>1492.195211</ele>
        <time>2021-10-03T08:16:55.299Z</time>
      </trkpt>
      <trkpt lat="41.70664" lon="44.44814">
        <ele>1495.62816</ele>
        <time>2021-10-03T08:18:05.306Z</time>
      </trkpt>
      <trkpt lat="41.70657" lon="44.45095">
        <ele>1494.995101</ele>
        <time>2021-10-03T08:19:12.303Z</time>
      </trkpt>
      <trkpt lat="41.7065" lon="44.45432">
        <ele>1484.599449</ele>
        <time>2021-10-03T08:19:52.290Z</time>
      </trkpt>
      <trkpt lat="41.70643" lon="44.45717">
        <ele>1484.907764</ele>
        <time>2021-10-03T08:20:43.345Z</time>
      </trkpt>
      <trkpt lat="41.70635" lon="44.4598">
        <ele>1489.785801</ele>
        <time>2021-10-03T08:21:45.304Z</time>
      </trkpt>
      <trkpt lat="41.70628" lon="44.46264">
        <ele>1486.33731</ele>
        <time>2021-10-03T08:22:45.327Z</time>
      </trkpt>
      <trkpt lat="41.70613" lon="44.46576">
        <ele>1486.236638</ele>
        <time>2021-10-03T08:23:45.285Z</time>
      </trkpt>
      <trkpt lat="41.70584" lon="44.46881">
        <ele>1491.77366</ele>
        <time>2021-10-03T08:24:47.315Z</time>
      </trkpt>
      <trkpt lat="41.70534" lon="44.47132">
        <ele>1501.318301</ele>
        <time>2021-10-03T08:26:24.299Z</time>
      </trkpt>
      <trkpt lat="41.70488" lon="44.47406">
        <ele>1501.730077</ele>
        <time>2021-10-03T08:27:42.331Z</time>
      </trkpt>
      <trkpt lat="41.70437" lon="44.47689">
        <ele>1495.519735</ele>
        <time>2021-10-03T08:28:33.344Z</time>
      </trkpt>
      <trkpt lat="41.70376" lon="44.47968">
        <ele>1499.969455</ele>
        <time>2021-10-03T08:29:32.302Z</time>
      </trkpt>
      <trkpt lat="41.70306" lon="44.48219">
        <ele>1506.287154</ele>
        <time>2021-10-03T08:31:09.312Z</time>
      </trkpt>
      <trkpt lat="41.70234" lon="44.4846">
        <ele>1513.796489</ele>
        <time>2021-10-03T08:32:55.304Z</time>
      </trkpt>
      <trkpt lat="41.70161" lon="44.48717">
        <ele>1521.872379</ele>
        <time>2021-10-03T08:34:30.315Z</time>
      </trkpt>
      <trkpt lat="41.70221" lon="44.48968">
        <ele>1524.749185</ele>
        <time>2021-10-03T08:35:51.280Z</time>
      </trkpt>
      <trkpt lat="41.70174" lon="44.49264">
        <ele>1509.89453</ele>
        <time>2021-10-03T08:36:31.316Z</time>
      </trkpt>
      <trkpt lat="41.70114" lon="44.4966">
        <ele>1484.682061</ele>
        <time>2021-10-03T08:37:11.341Z</time>
      </trkpt>
      <trkpt lat="41.6996" lon="44.49921">
        <ele>1466.612809</ele>
        <time>2021-10-03T08:37:51.313Z</time>
      </trkpt>
      <trkpt lat="41.69722" lon="44.50045">
        <ele>1445.974901</ele>
        <time>2021-10-03T08:38:31.308Z</time>
      </trkpt>
      <trkpt lat="41.69547" lon="44.50292">
        <ele>1417.770506</ele>
        <time>2021-10-03T08:39:11.310Z</time>
      </trkpt>
      <trkpt lat="41.69345" lon="44.50571">
        <ele>1393.355976</ele>
        <time>2021-10-03T08:39:51.293Z</time>
      </trkpt>
      <trkpt lat="41.69126" lon="44.50748">
        <ele>1382.935201</ele>
        <time>2021-10-03T08:40:30.305Z</time>
      </trkpt>
      <trkpt lat="41.6887" lon="44.50805">
        <ele>1375.272946</ele>
        <time>2021-10-03T08:41:10.317Z</time>
      </trkpt>
      <trkpt lat="41.68808" lon="44.51147">
        <ele>1362.250027</ele>
        <time>2021-10-03T08:41:50.311Z</time>
      </trkpt>
      <trkpt lat="41.68666" lon="44.51408">
        <ele>1348.073577</ele>
        <time>2021-10-03T08:42:28.310Z</time>
      </trkpt>
      <trkpt lat="41.6852" lon="44.51694">
        <ele>1342.828874</ele>
        <time>2021-10-03T08:43:06.308Z</time>
      </trkpt>
      <trkpt lat="41.68335" lon="44.51781">
        <ele>1351.156376</ele>
        <time>2021-10-03T08:44:52.302Z</time>
      </trkpt>
      <trkpt lat="41.6817" lon="44.51781">
        <ele>1359.363506</ele>
        <time>2021-10-03T08:46:35.320Z</time>
      </trkpt>
      <trkpt lat="41.68" lon="44.519">
        <ele>1362.153914</ele>
        <time>2021-10-03T08:48:01.316Z</time>
      </trkpt>
      <trkpt lat="41.6781" lon="44.51983">
        <ele>1363.345223</ele>
        <time>2021-10-03T08:48:59.354Z</time>
      </trkpt>
      <trkpt lat="41.6756" lon="44.52077">
        <ele>1361.222633</ele>
        <time>2021-10-03T08:49:47.300Z</time>
      </trkpt>
      <trkpt lat="41.67375" lon="44.52265">
        <ele>1357.765705</ele>
        <time>2021-10-03T08:50:40.311Z</time>
      </trkpt>
      <trkpt lat="41.67181" lon="44.52358">
        <ele>1361.619288</ele>
        <time>2021-10-03T08:51:53.301Z</time>
      </trkpt>
      <trkpt lat="41.6697" lon="44.52416">
        <ele>1357.58212</ele>
        <time>2021-10-03T08:52:51.312Z</time>
      </trkpt>
      <trkpt lat="41.66777" lon="44.5262">
        <ele>1344.213149</ele>
        <time>2021-10-03T08:53:31.306Z</time>
      </trkpt>
      <trkpt lat="41.6667" lon="44.52906">
        <ele>1334.304897</ele>
        <time>2021-10-03T08:54:20.314Z</time>
      </trkpt>
      <trkpt lat="41.66552" lon="44.53201">
        <ele>1325.004885</ele>
        <time>2021-10-03T08:55:00.307Z</time>
      </trkpt>
      <trkpt lat="41.66471" lon="44.5347">
        <ele>1324.324083</ele>
        <time>2021-10-03T08:55:53.313Z</time>
      </trkpt>
      <trkpt lat="41.66492" lon="44.53849">
        <ele>1309.812951</ele>
        <time>2021-10-03T08:56:33.334Z</time>
      </trkpt>
      <trkpt lat="41.6648" lon="44.5415">
        <ele>1308.983526</ele>
        <time>2021-10-03T08:57:25.356Z</time>
      </trkpt>
      <trkpt lat="41.66475" lon="44.5442">
        <ele>1314.830866</ele>
        <time>2021-10-03T08:58:41.301Z</time>
      </trkpt>
      <trkpt lat="41.66401" lon="44.54666">
        <ele>1323.815431</ele>
        <time>2021-10-03T09:00:23.320Z</time>
      </trkpt>
      <trkpt lat="41.66288" lon="44.54878">
        <ele>1331.942995</ele>
        <time>2021-10-03T09:01:52.313Z</time>
      </trkpt>
      <trkpt lat="41.66207" lon="44.55127">
        <ele>1341.969202</ele>
        <time>2021-10-03T09:03:32.346Z</time>
      </trkpt>
      <trkpt lat="41.66148" lon="44.55381">
        <ele>1350.910443</ele>
        <time>2021-10-03T09:05:30.358Z</time>
      </trkpt>
      <trkpt lat="41.66137" lon="44.55642">
        <ele>1358.476717</ele>
        <time>2021-10-03T09:07:26.341Z</time>
      </trkpt>
      <trkpt lat="41.66005" lon="44.55792">
        <ele>1370.144545</ele>
        <time>2021-10-03T09:09:30.337Z</time>
      </trkpt>
      <trkpt lat="41.65874" lon="44.55991">
        <ele>1369.996739</ele>
        <time>2021-10-03T09:11:18.320Z</time>
      </trkpt>
      <trkpt lat="41.65794" lon="44.56335">
        <ele>1357.488036</ele>
        <time>2021-10-03T09:11:58.347Z</time>
      </trkpt>
      <trkpt lat="41.65606" lon="44.56516">
        <ele>1356.164782</ele>
        <time>2021-10-03T09:12:52.322Z</time>
      </trkpt>
      <trkpt lat="41.65466" lon="44.5654">
        <ele>1359.121287</ele>
        <time>2021-10-03T09:13:50.316Z</time>
      </trkpt>
      <trkpt lat="41.6533" lon="44.56361">
        <ele>1367.644653</ele>
        <time>2021-10-03T09:15:42.317Z</time>
      </trkpt>
      <trkpt lat="41.65327" lon="44.56434">
        <ele>1390.744101</ele>
        <time>2021-10-03T09:17:49.343Z</time>
      </trkpt>
      <trkpt lat="41.65382" lon="44.56672">
        <ele>1403.719423</ele>
        <time>2021-10-03T09:19:54.326Z</time>
      </trkpt>
      <trkpt lat="41.65386" lon="44.56897">
        <ele>1418.108455</ele>
        <time>2021-10-03T09:22:00.330Z</time>
      </trkpt>
      <trkpt lat="41.65363" lon="44.57152">
        <ele>1433.136456</ele>
        <time>2021-10-03T09:24:24.336Z</time>
      </trkpt>
      <trkpt lat="41.65432" lon="44.57405">
        <ele>1426.998879</ele>
        <time>2021-10-03T09:26:26.325Z</time>
      </trkpt>
      <trkpt lat="41.65525" lon="44.57667">
        <ele>1414.626088</ele>
        <time>2021-10-03T09:27:06.317Z</time>
      </trkpt>
      <trkpt lat="41.65583" lon="44.57975">
        <ele>1395.337925</ele>
        <time>2021-10-03T09:27:46.328Z</time>
      </trkpt>
      <trkpt lat="41.65605" lon="44.58286">
        <ele>1381.065092</ele>
        <time>2021-10-03T09:28:27.321Z</time>
      </trkpt>
      <trkpt lat="41.65599" lon="44.58563">
        <ele>1367.87834</ele>
        <time>2021-10-03T09:29:07.328Z</time>
      </trkpt>
      <trkpt lat="41.65525" lon="44.58844">
        <ele>1354.689987</ele>
        <time>2021-10-03T09:29:54.331Z</time>
      </trkpt>
      <trkpt lat="41.65567" lon="44.59121">
        <ele>1343.788815</ele>
        <time>2021-10-03T09:30:34.314Z</time>
      </trkpt>
      <trkpt lat="41.65575" lon="44.59404">
        <ele>1335.710317</ele>
        <time>2021-10-03T09:31:15.326Z</time>
      </trkpt>
      <trkpt lat="41.65679" lon="44.59745">
        <ele>1328.683957</ele>
        <time>2021-10-03T09:31:55.338Z</time>
      </trkpt>
      <trkpt lat="41.6576" lon="44.6008">
        <ele>1324.228731</ele>
        <time>2021-10-03T09:32:39.355Z</time>
      </trkpt>
      <trkpt lat="41.65872" lon="44.60302">
        <ele>1325.486119</ele>
        <time>2021-10-03T09:38:43.322Z</time>
      </trkpt>
      <trkpt lat="41.65959" lon="44.60522">
        <ele>1338.831535</ele>
        <time>2021-10-03T09:40:03.325Z</time>
      </trkpt>
      <trkpt lat="41.66001" lon="44.60766">
        <ele>1356.210475</ele>
        <time>2021-10-03T09:42:24.328Z</time>
      </trkpt>
      <trkpt lat="41.65929" lon="44.61006">
        <ele>1372.761998</ele>
        <time>2021-10-03T09:45:03.310Z</time>
      </trkpt>
      <trkpt lat="41.65888" lon="44.61247">
        <ele>1390.632074</ele>
        <time>2021-10-03T09:47:41.362Z</time>
      </trkpt>
      <trkpt lat="41.65956" lon="44.61483">
        <ele>1406.340344</ele>
        <time>2021-10-03T09:50:20.315Z</time>
      </trkpt>
      <trkpt lat="41.6592" lon="44.61731">
        <ele>1418.576725</ele>
        <time>2021-10-03T09:52:51.352Z</time>
      </trkpt>
      <trkpt lat="41.65904" lon="44.61997">
        <ele>1423.423954</ele>
        <time>2021-10-03T09:54:19.329Z</time>
      </trkpt>
      <trkpt lat="41.65882" lon="44.6228">
        <ele>1425.612544</ele>
        <time>2021-10-03T09:55:21.331Z</time>
      </trkpt>
      <trkpt lat="41.65905" lon="44.62567">
        <ele>1433.233135</ele>
        <time>2021-10-03T09:56:21.363Z</time>
      </trkpt>
      <trkpt lat="41.65985" lon="44.62807">
        <ele>1428.208471</ele>
        <time>2021-10-03T09:57:27.353Z</time>
      </trkpt>
      <trkpt lat="41.66035" lon="44.6308">
        <ele>1425.724806</ele>
        <time>2021-10-03T09:58:28.342Z</time>
      </trkpt>
      <trkpt lat="41.66111" lon="44.63339">
        <ele>1428.285655</ele>
        <time>2021-10-03T09:59:29.387Z</time>
      </trkpt>
      <trkpt lat="41.66193" lon="44.6362">
        <ele>1420.996312</ele>
        <time>2021-10-03T10:00:23.336Z</time>
      </trkpt>
      <trkpt lat="41.66415" lon="44.63825">
        <ele>1397.963903</ele>
        <time>2021-10-03T10:01:03.345Z</time>
      </trkpt>
      <trkpt lat="41.66646" lon="44.63939">
        <ele>1377.04276</ele>
        <time>2021-10-03T10:01:43.338Z</time>
      </trkpt>
      <trkpt lat="41.66578" lon="44.64225">
        <ele>1359.858235</ele>
        <time>2021-10-03T10:02:06.376Z</time>
      </trkpt>
      <trkpt lat="41.66507" lon="44.64527">
        <ele>1340.07935</ele>
        <time>2021-10-03T10:02:33.321Z</time>
      </trkpt>
      <trkpt lat="41.66694" lon="44.64813">
        <ele>1314.166494</ele>
        <time>2021-10-03T10:03:10.330Z</time>
      </trkpt>
      <trkpt lat="41.66965" lon="44.64732">
        <ele>1301.279263</ele>
        <time>2021-10-03T10:03:44.354Z</time>
      </trkpt>
      <trkpt lat="41.6704" lon="44.64965">
        <ele>1293.39509</ele>
        <time>2021-10-03T10:04:23.332Z</time>
      </trkpt>
      <trkpt lat="41.67031" lon="44.6525">
        <ele>1296.361697</ele>
        <time>2021-10-03T10:05:15.331Z</time>
      </trkpt>
      <trkpt lat="41.67054" lon="44.6552">
        <ele>1313.029403</ele>
        <time>2021-10-03T10:06:44.322Z</time>
      </trkpt>
      <trkpt lat="41.67065" lon="44.65782">
        <ele>1329.834623</ele>
        <time>2021-10-03T10:08:44.388Z</time>
      </trkpt>
      <trkpt lat="41.67079" lon="44.6604">
        <ele>1342.810288</ele>
        <time>2021-10-03T10:11:05.348Z</time>
      </trkpt>
      <trkpt lat="41.67097" lon="44.66294">
        <ele>1352.789113</ele>
        <time>2021-10-03T10:13:05.332Z</time>
      </trkpt>
      <trkpt lat="41.67155" lon="44.66556">
        <ele>1353.911069</ele>
        <time>2021-10-03T10:14:37.330Z</time>
      </trkpt>
      <trkpt lat="41.67225" lon="44.66838">
        <ele>1343.986285</ele>
        <time>2021-10-03T10:15:30.322Z</time>
      </trkpt>
      <trkpt lat="41.67333" lon="44.67093">
        <ele>1340.712421</ele>
        <time>2021-10-03T10:16:20.346Z</time>
      </trkpt>
      <trkpt lat="41.6743" lon="44.67343">
        <ele>1330.92675</ele>
        <time>2021-10-03T10:17:02.336Z</time>
      </trkpt>
      <trkpt lat="41.67522" lon="44.67632">
        <ele>1317.75254</ele>
        <time>2021-10-03T10:28:39.370Z</time>
      </trkpt>
      <trkpt lat="41.6763" lon="44.6794">
        <ele>1297.690844</ele>
        <time>2021-10-03T10:30:40.343Z</time>
      </trkpt>
      <trkpt lat="41.67799" lon="44.68172">
        <ele>1279.25945</ele>
        <time>2021-10-03T10:31:20.343Z</time>
      </trkpt>
      <trkpt lat="41.67929" lon="44.68318">
        <ele>1257.49112</ele>
        <time>2021-10-03T10:32:00.344Z</time>
      </trkpt>
      <trkpt lat="41.67922" lon="44.68681">
        <ele>1235.825309</ele>
        <time>2021-10-03T10:33:57.397Z</time>
      </trkpt>
      <trkpt lat="41.68055" lon="44.6834">
        <ele>1218.380127</ele>
        <time>2021-10-03T10:34:37.355Z</time>
      </trkpt>
      <trkpt lat="41.68029" lon="44.68643">
        <ele>1195.391881</ele>
        <time>2021-10-03T10:35:16.390Z</time>
      </trkpt>
      <trkpt lat="41.68016" lon="44.68991">
        <ele>1170.738314</ele>
        <time>2021-10-03T10:36:01.346Z</time>
      </trkpt>
      <trkpt lat="41.68067" lon="44.69273">
        <ele>1155.104132</ele>
        <time>2021-10-03T10:36:44.340Z</time>
      </trkpt>
      <trkpt lat="41.68243" lon="44.69125">
        <ele>1133.473562</ele>
        <time>2021-10-03T10:37:26.346Z</time>
      </trkpt>
      <trkpt lat="41.68393" lon="44.69195">
        <ele>1104.194968</ele>
        <time>2021-10-03T10:38:06.329Z</time>
      </trkpt>
      <trkpt lat="41.68508" lon="44.69164">
        <ele>1089.13303</ele>
        <time>2021-10-03T10:38:47.338Z</time>
      </trkpt>
      <trkpt lat="41.68529" lon="44.69511">
        <ele>1077.630467</ele>
        <time>2021-10-03T10:39:28.357Z</time>
      </trkpt>
      <trkpt lat="41.6876" lon="44.69666">
        <ele>1051.982446</ele>
        <time>2021-10-03T10:40:08.355Z</time>
      </trkpt>
      <trkpt lat="41.68996" lon="44.6968">
        <ele>1031.595391</ele>
        <time>2021-10-03T10:40:48.358Z</time>
      </trkpt>
      <trkpt lat="41.69253" lon="44.69533">
        <ele>1002.659777</ele>
        <time>2021-10-03T10:41:28.343Z</time>
      </trkpt>
      <trkpt lat="41.69479" lon="44.69489">
        <ele>977.691199</ele>
        <time>2021-10-03T10:42:08.336Z</time>
      </trkpt>
      <trkpt lat="41.69567" lon="44.69856">
        <ele>962.541557</ele>
        <time>2021-10-03T10:42:44.337Z</time>
      </trkpt>
      <trkpt lat="41.69743" lon="44.70094">
        <ele>961.438178</ele>
        <time>2021-10-03T10:43:27.347Z</time>
      </trkpt>
      <trkpt lat="41.699" lon="44.70257">
        <ele>961.224488</ele>
        <time>2021-10-03T10:44:27.355Z</time>
      </trkpt>
      <trkpt lat="41.70026" lon="44.70495">
        <ele>941.4415</ele>
        <time>2021-10-03T10:45:09.343Z</time>
      </trkpt>
      <trkpt lat="41.70251" lon="44.70215">
        <ele>913.900434</ele>
        <time>2021-10-03T10:45:49.332Z</time>
      </trkpt>
      <trkpt lat="41.70364" lon="44.7025">
        <ele>893.827125</ele>
        <time>2021-10-03T10:46:29.351Z</time>
      </trkpt>
      <trkpt lat="41.70606" lon="44.70383">
        <ele>864.575917</ele>
        <time>2021-10-03T10:47:07.348Z</time>
      </trkpt>
      <trkpt lat="41.70745" lon="44.70619">
        <ele>840.264406</ele>
        <time>2021-10-03T10:47:43.348Z</time>
      </trkpt>
      <trkpt lat="41.70794" lon="44.70785">
        <ele>825.534602</ele>
        <time>2021-10-03T10:48:14.346Z</time>
      </trkpt>
      <trkpt lat="41.70932" lon="44.70934">
        <ele>800.42312</ele>
        <time>2021-10-03T10:48:51.355Z</time>
      </trkpt>
      <trkpt lat="41.7091" lon="44.71268">
        <ele>778.378426</ele>
        <time>2021-10-03T10:49:27.349Z</time>
      </trkpt>
      <trkpt lat="41.71041" lon="44.7091">
        <ele>755.580429</ele>
        <time>2021-10-03T10:50:07.391Z</time>
      </trkpt>
      <trkpt lat="41.71139" lon="44.70611">
        <ele>741.770521</ele>
        <time>2021-10-03T10:57:41.353Z</time>
      </trkpt>
      <trkpt lat="41.71227" lon="44.70244">
        <ele>728.973203</ele>
        <time>2021-10-03T10:58:22.354Z</time>
      </trkpt>
      <trkpt lat="41.71281" lon="44.69834">
        <ele>713.401261</ele>
        <time>2021-10-03T10:59:01.343Z</time>
      </trkpt>
      <trkpt lat="41.714" lon="44.69869">
        <ele>701.404715</ele>
        <time>2021-10-03T10:59:32.355Z</time>
      </trkpt>
      <trkpt lat="41.71384" lon="44.70227">
        <ele>682.639677</ele>
        <time>2021-10-03T11:00:11.364Z</time>
      </trkpt>
      <trkpt lat="41.7138" lon="44.70629">
        <ele>658.19831</ele>
        <time>2021-10-03T11:00:51.344Z</time>
      </trkpt>
      <trkpt lat="41.71306" lon="44.71029">
        <ele>629.315861</ele>
        <time>2021-10-03T11:01:31.337Z</time>
      </trkpt>
      <trkpt lat="41.71306" lon="44.71436">
        <ele>604.892595</ele>
        <time>2021-10-03T11:02:11.354Z</time>
      </trkpt>
      <trkpt lat="41.71296" lon="44.71811">
        <ele>587.813756</ele>
        <time>2021-10-03T11:02:50.383Z</time>
      </trkpt>
      <trkpt lat="41.71248" lon="44.72164">
        <ele>569.489988</ele>
        <time>2021-10-03T11:03:30.351Z</time>
      </trkpt>
      <trkpt lat="41.71164" lon="44.72503">
        <ele>550.887431</ele>
        <time>2021-10-03T11:04:04.362Z</time>
      </trkpt>
      <trkpt lat="41.71048" lon="44.72786">
        <ele>553.275</ele>
        <time>2021-10-03T11:04:54.352Z</time>
      </trkpt>
      <trkpt lat="41.71017" lon="44.73064">
        <ele>552.087833</ele>
        <time>2021-10-03T11:05:44.387Z</time>
      </trkpt>
      <trkpt lat="41.70961" lon="44.73343">
        <ele>561.204639</ele>
        <time>2021-10-03T11:06:47.384Z</time>
      </trkpt>
      <trkpt lat="41.70756" lon="44.73437">
        <ele>557.711187</ele>
        <time>2021-10-03T11:07:37.348Z</time>
      </trkpt>
      <trkpt lat="41.7059" lon="44.7358">
        <ele>553.529945</ele>
        <time>2021-10-03T11:08:23.344Z</time>
      </trkpt>
      <trkpt lat="41.70716" lon="44.73752">
        <ele>564.174503</ele>
        <time>2021-10-03T11:09:51.339Z</time>
      </trkpt>
      <trkpt lat="41.7086" lon="44.73994">
        <ele>565.380305</ele>
        <time>2021-10-03T11:11:02.345Z</time>
      </trkpt>
      <trkpt lat="41.71033" lon="44.74281">
        <ele>543.172921</ele>
        <time>2021-10-03T11:11:37.358Z</time>
      </trkpt>
      <trkpt lat="41.71125" lon="44.74604">
        <ele>524.93579</ele>
        <time>2021-10-03T11:12:17.354Z</time>
      </trkpt>
      <trkpt lat="41.71157" lon="44.74928">
        <ele>510.069925</ele>
        <time>2021-10-03T11:12:57.351Z</time>
      </trkpt>
      <trkpt lat="41.71176" lon="44.75239">
        <ele>505.691131</ele>
        <time>2021-10-03T11:13:40.353Z</time>
      </trkpt>
      <trkpt lat="41.71136" lon="44.75538">
        <ele>504.794357</ele>
        <time>2021-10-03T11:14:32.342Z</time>
      </trkpt>
      <trkpt lat="41.711" lon="44.75826">
        <ele>511.633802</ele>
        <time>2021-10-03T11:15:18.356Z</time>
      </trkpt>
      <trkpt lat="41.71046" lon="44.76108">
        <ele>515.107403</ele>
        <time>2021-10-03T11:16:04.349Z</time>
      </trkpt>
      <trkpt lat="41.7102" lon="44.76381">
        <ele>513.746192</ele>
        <time>2021-10-03T11:16:49.338Z</time>
      </trkpt>
      <trkpt lat="41.70996" lon="44.76674">
        <ele>514.429169</ele>
        <time>2021-10-03T11:17:32.351Z</time>
      </trkpt>
      <trkpt lat="41.70928" lon="44.76963">
        <ele>494.92749</ele>
        <time>2021-10-03T11:18:22.365Z</time>
      </trkpt>
      <trkpt lat="41.70884" lon="44.77273">
        <ele>500.285291</ele>
        <time>2021-10-03T11:26:15.355Z</time>
      </trkpt>
      <trkpt lat="41.70919" lon="44.7754">
        <ele>496.320745</ele>
        <time>2021-10-03T11:27:06.342Z</time>
      </trkpt>
      <trkpt lat="41.70922" lon="44.77838">
        <ele>481.755918</ele>
        <time>2021-10-03T11:27:50.356Z</time>
      </trkpt>
      <trkpt lat="41.70852" lon="44.78158">
        <ele>471.983792</ele>
        <time>2021-10-03T11:29:26.339Z</time>
      </trkpt>
      <trkpt lat="41.70746" lon="44.78436">
        <ele>474.50118</ele>
        <time>2021-10-03T11:30:21.350Z</time>
      </trkpt>
      <trkpt lat="41.70646" lon="44.7871">
        <ele>469.771048</ele>
        <time>2021-10-03T11:31:02.340Z</time>
      </trkpt>
      <trkpt lat="41.70477" lon="44.78965">
        <ele>458.624187</ele>
        <time>2021-10-03T11:31:42.338Z</time>
      </trkpt>
      <trkpt lat="41.70306" lon="44.7915">
        <ele>450.932602</ele>
        <time>2021-10-03T11:32:25.348Z</time>
      </trkpt>
      <trkpt lat="41.70205" lon="44.79386">
        <ele>457.999494</ele>
        <time>2021-10-03T11:33:08.344Z</time>
      </trkpt>
      <trkpt lat="41.70022" lon="44.79644">
        <ele>452.271206</ele>
        <time>2021-10-03T11:33:48.354Z</time>
      </trkpt>
      <trkpt lat="41.6983" lon="44.79834">
        <ele>450.578</ele>
        <time>2021-10-03T11:34:28.346Z</time>
      </trkpt>
      <trkpt lat="41.69622" lon="44.79969">
        <ele>447.097263</ele>
        <time>2021-10-03T11:35:12.351Z</time>
      </trkpt>
      <trkpt lat="41.69385" lon="44.80098">
        <ele>442.038552</ele>
        <time>2021-10-03T11:35:53.356Z</time>
      </trkpt>
      <trkpt lat="41.69173" lon="44.80117">
        <ele>447.073942</ele>
        <time>2021-10-03T11:37:13.349Z</time>
      </trkpt>
      <trkpt lat="41.69074" lon="44.80122">
        <ele>447.073942</ele>
        <time>2021-10-03T11:41:50.152Z</time>
      </trkpt>
    </trkseg>
  </trk>
</gpx>